Time;durP1;ratioP1;P1;durP2;ratioP2;P2;SDS_P1;SDS_P2;PMS_P1;PMS_P2;Temp;Humidity;BMP_temperature;BMP_pressure;BME280_temperature;BME280_humidity;BME280_pressure;Samples;Min_cycle;Max_cycle;Signal;HPM_P1;HPM_P2
2022/06/03 00:00:19;;;;;;;8.00;5.72;;;;;;;18.46;84.35;97108.50;5018165;28;20077;-67
2022/06/03 00:03:26;;;;;;;6.15;5.53;;;;;;;18.42;84.69;97116.94;4985289;28;20266;-66
2022/06/03 00:06:22;;;;;;;6.20;5.38;;;;;;;18.25;85.69;97112.34;4977194;28;20497;-66
2022/06/03 00:09:07;;;;;;;7.65;5.53;;;;;;;18.25;85.73;97123.53;4977803;28;20100;-65
2022/06/03 00:11:53;;;;;;;6.03;5.43;;;;;;;17.70;88.00;97058.50;4985351;28;20124;-65
2022/06/03 00:14:32;;;;;;;8.48;5.60;;;;;;;18.15;87.26;97109.66;4999804;28;20062;-66
2022/06/03 00:17:17;;;;;;;9.65;6.97;;;;;;;18.09;86.85;97098.91;4999495;28;20518;-65
2022/06/03 00:20:11;;;;;;;9.27;5.45;;;;;;;17.96;88.00;97097.03;4985320;28;20069;-65
2022/06/03 00:22:50;;;;;;;7.15;5.90;;;;;;;18.09;86.63;97100.91;4985252;28;20129;-65
2022/06/03 00:25:45;;;;;;;7.05;5.25;;;;;;;18.08;86.31;97102.13;4985487;28;20061;-66
2022/06/03 00:28:24;;;;;;;9.35;6.65;;;;;;;17.85;88.40;97099.97;4985051;28;20062;-66
2022/06/03 00:31:15;;;;;;;9.13;6.38;;;;;;;17.42;90.70;97097.97;4999699;28;20133;-65
2022/06/03 00:33:59;;;;;;;8.10;5.90;;;;;;;17.57;90.15;97100.25;4984862;28;20338;-66
2022/06/03 00:36:45;;;;;;;8.15;5.70;;;;;;;17.74;89.73;97087.25;4984689;28;20137;-66
2022/06/03 00:39:38;;;;;;;7.90;6.45;;;;;;;17.71;89.04;97088.09;4985203;28;20054;-67
2022/06/03 00:42:44;;;;;;;7.35;5.93;;;;;;;17.60;88.65;97076.19;4984672;28;20440;-66
2022/06/03 00:45:26;;;;;;;5.70;5.18;;;;;;;17.73;87.79;97085.69;4984878;28;20229;-66
2022/06/03 00:48:07;;;;;;;7.43;5.53;;;;;;;17.63;89.69;97080.97;4984445;28;20065;-65
2022/06/03 00:51:01;;;;;;;8.65;6.22;;;;;;;17.60;92.51;97081.81;4984866;28;20068;-66
2022/06/03 00:53:53;;;;;;;11.23;7.40;;;;;;;17.63;92.22;97080.97;4984421;28;20141;-66
2022/06/03 00:56:38;;;;;;;9.88;6.40;;;;;;;17.63;92.26;97078.16;4984800;28;20054;-67
2022/06/03 00:59:17;;;;;;;9.75;6.63;;;;;;;17.46;92.56;97079.94;4984518;28;20062;-66
2022/06/03 01:02:01;;;;;;;11.07;6.72;;;;;;;17.47;93.04;97089.94;5014166;28;20062;-65
2022/06/03 01:04:44;;;;;;;10.30;5.95;;;;;;;17.40;93.01;97083.56;5023429;28;20057;-66
2022/06/03 01:07:32;;;;;;;8.48;6.32;;;;;;;17.48;91.64;97076.72;5023608;28;20061;-66
2022/06/03 01:10:07;;;;;;;8.65;6.22;;;;;;;17.58;90.60;97073.00;5023958;28;20094;-66
2022/06/03 01:12:58;;;;;;;14.93;6.20;;;;;;;17.58;90.95;97073.00;5021720;28;20080;-66
2022/06/03 01:15:59;;;;;;;6.53;5.90;;;;;;;17.61;91.28;97077.78;5023182;28;20065;-66
2022/06/03 01:18:35;;;;;;;8.48;6.38;;;;;;;17.76;90.44;97068.03;5023851;28;20065;-66
2022/06/03 01:21:15;;;;;;;7.90;6.82;;;;;;;17.66;90.61;97060.53;5022973;28;20100;-65
2022/06/03 01:24:12;;;;;;;8.90;6.95;;;;;;;17.83;91.94;97067.97;5023704;28;20566;-66
2022/06/03 01:27:09;;;;;;;7.57;6.28;;;;;;;17.82;89.29;97066.38;5023600;28;20061;-65
2022/06/03 01:30:01;;;;;;;7.03;6.32;;;;;;;17.84;87.89;97072.34;5023631;28;20160;-66
2022/06/03 01:32:41;;;;;;;14.98;6.88;;;;;;;17.71;87.60;97071.28;5005585;28;20085;-66
2022/06/03 01:35:35;;;;;;;8.27;6.65;;;;;;;17.58;89.81;97053.41;5022997;28;20061;-66
2022/06/03 01:38:18;;;;;;;8.10;6.88;;;;;;;17.67;91.26;97062.13;5023392;28;20417;-65
2022/06/03 01:41:06;;;;;;;10.70;7.93;;;;;;;17.60;91.99;97071.41;5021560;28;20127;-65
2022/06/03 01:44:03;;;;;;;6.97;5.88;;;;;;;17.28;92.15;97075.66;5023648;28;20296;-67
2022/06/03 01:46:38;;;;;;;10.13;7.20;;;;;;;17.28;93.60;97058.88;5023153;28;20403;-65
2022/06/03 01:49:23;;;;;;;12.88;8.02;;;;;;;17.37;99.12;97067.59;5022943;28;20053;-66
2022/06/03 01:52:11;;;;;;;10.07;7.80;;;;;;;17.27;96.79;97071.28;5022730;28;20060;-65
2022/06/03 01:54:55;;;;;;;11.82;7.50;;;;;;;16.97;100.00;97073.94;5022671;28;20401;-65
2022/06/03 01:57:59;;;;;;;12.10;7.60;;;;;;;17.18;98.77;97065.38;5023778;28;20085;-66
2022/06/03 02:00:34;;;;;;;14.93;8.30;;;;;;;17.29;98.70;97071.69;5017949;28;20065;-65
2022/06/03 02:03:12;;;;;;;11.30;8.38;;;;;;;16.98;99.13;97005.53;5003248;28;20116;-67
2022/06/03 02:06:11;;;;;;;11.50;8.52;;;;;;;17.50;99.24;97085.50;5002986;28;20096;-66
2022/06/03 02:08:55;;;;;;;12.18;8.98;;;;;;;17.60;97.42;97079.00;5002005;28;20058;-66
2022/06/03 02:11:52;;;;;;;13.77;9.25;;;;;;;17.12;98.53;97033.44;5002967;28;20062;-65
2022/06/03 02:14:25;;;;;;;12.52;9.13;;;;;;;17.48;97.96;97097.13;4989896;28;20164;-67
2022/06/03 02:17:12;;;;;;;9.57;6.95;;;;;;;17.26;95.75;97083.69;5006923;28;20433;-66
2022/06/03 02:20:25;;;;;;;9.68;7.85;;;;;;;17.39;96.36;97088.38;5006837;28;20093;-66
2022/06/03 02:23:09;;;;;;;10.88;8.32;;;;;;;17.28;96.67;97086.88;4930207;29;20079;-66
2022/06/03 02:25:57;;;;;;;14.05;9.63;;;;;;;17.32;100.00;97093.25;4988683;28;20066;-66
2022/06/03 02:28:49;;;;;;;20.30;10.32;;;;;;;17.28;99.98;97098.06;5006919;28;20531;-65
2022/06/03 02:31:34;;;;;;;13.15;9.65;;;;;;;17.20;99.86;97071.38;4989159;28;20054;-66
2022/06/03 02:34:01;;;;;;;11.48;9.52;;;;;;;15.11;100.00;96740.59;5006671;28;20058;-66
2022/06/03 02:36:58;;;;;;;12.27;10.30;;;;;;;17.38;100.00;97100.00;5006454;28;20535;-66
2022/06/03 02:39:37;;;;;;;12.63;9.38;;;;;;;17.37;98.47;97096.38;5005998;28;20058;-65
2022/06/03 02:42:36;;;;;;;12.23;9.48;;;;;;;17.37;98.01;97110.38;5005897;28;20068;-66
2022/06/03 02:45:38;;;;;;;13.38;8.93;;;;;;;17.35;98.40;97109.22;5000295;28;20562;-66
2022/06/03 02:48:30;;;;;;;18.13;9.70;;;;;;;17.16;100.00;97113.38;5005802;28;20525;-65
2022/06/03 02:51:15;;;;;;;14.32;10.00;;;;;;;17.16;100.00;97110.56;5006059;28;20153;-66
2022/06/03 02:53:54;;;;;;;14.80;9.95;;;;;;;17.21;100.00;97106.53;4988103;28;20069;-66
2022/06/03 02:56:35;;;;;;;11.57;9.43;;;;;;;17.32;100.00;97110.03;5006889;28;20181;-66
2022/06/03 02:59:24;;;;;;;14.30;10.60;;;;;;;17.07;100.00;97109.44;5004679;28;20057;-65
2022/06/03 03:02:00;;;;;;;13.75;10.82;;;;;;;17.05;100.00;97117.44;4996645;28;20058;-66
2022/06/03 03:04:43;;;;;;;15.73;10.23;;;;;;;17.18;100.00;97118.56;5010638;28;20085;-66
2022/06/03 03:07:37;;;;;;;13.40;10.70;;;;;;;17.01;100.00;97122.28;5008128;28;20110;-66
2022/06/03 03:10:29;;;;;;;13.48;10.35;;;;;;;17.00;100.00;97115.09;5007861;28;20148;-65
2022/06/03 03:13:25;;;;;;;15.70;9.20;;;;;;;17.14;100.00;97126.19;5008413;28;20459;-65
2022/06/03 03:16:43;;;;;;;12.27;9.20;;;;;;;16.80;100.00;97066.47;5008163;28;20073;-65
2022/06/03 03:19:49;;;;;;;13.60;9.30;;;;;;;17.10;100.00;97136.63;5005986;28;20530;-66
2022/06/03 03:22:53;;;;;;;15.95;9.45;;;;;;;16.50;100.00;97031.47;5024137;28;20065;-65
2022/06/03 03:25:35;;;;;;;15.27;9.15;;;;;;;17.14;98.75;97103.78;5007154;28;20053;-66
2022/06/03 03:28:17;;;;;;;11.48;9.00;;;;;;;17.58;98.69;97143.84;5023628;28;20057;-66
2022/06/03 03:30:57;;;;;;;10.95;9.02;;;;;;;17.37;98.85;97095.59;5024917;28;20067;-67
2022/06/03 03:33:36;;;;;;;14.00;9.18;;;;;;;17.67;96.35;97146.19;5025031;28;20540;-66
2022/06/03 03:36:34;;;;;;;19.85;10.18;;;;;;;17.83;96.30;97146.44;5007684;28;20061;-65
2022/06/03 03:39:48;;;;;;;12.85;9.32;;;;;;;17.91;96.37;97147.94;5007463;28;20053;-66
2022/06/03 03:42:24;;;;;;;12.63;8.30;;;;;;;17.72;94.25;97146.53;4964580;28;20057;-66
2022/06/03 03:45:09;;;;;;;9.40;8.35;;;;;;;17.77;91.13;97160.09;5025232;28;20460;-67
2022/06/03 03:48:23;;;;;;;14.07;7.50;;;;;;;17.78;92.24;97158.09;5024695;28;20460;-66
2022/06/03 03:51:11;;;;;;;10.43;7.90;;;;;;;17.89;91.14;97167.19;5024021;28;20080;-65
2022/06/03 03:53:49;;;;;;;9.65;8.65;;;;;;;18.09;90.54;97165.38;5025168;28;20064;-66
2022/06/03 03:56:38;;;;;;;13.27;8.48;;;;;;;18.28;89.91;97167.56;5024555;28;20092;-66
2022/06/03 03:59:36;;;;;;;12.80;7.80;;;;;;;18.53;88.70;97168.13;5023172;28;20065;-67
2022/06/03 04:02:33;;;;;;;20.67;7.90;;;;;;;18.73;87.10;97177.47;5007696;28;20064;-66
2022/06/03 04:05:06;;;;;;;17.08;8.50;;;;;;;18.91;86.41;97192.09;5003031;28;20344;-67
2022/06/03 04:07:53;;;;;;;9.10;7.85;;;;;;;18.89;86.90;97197.31;4987459;28;20073;-66
2022/06/03 04:10:29;;;;;;;14.38;7.78;;;;;;;19.08;87.62;97179.81;5003222;28;20054;-65
2022/06/03 04:13:25;;;;;;;11.25;7.90;;;;;;;19.16;86.31;97189.72;5003350;28;20141;-66
2022/06/03 04:16:28;;;;;;;12.30;7.72;;;;;;;19.20;86.00;97190.50;4993903;28;20064;-66
2022/06/03 04:19:34;;;;;;;11.60;8.32;;;;;;;19.39;85.13;97192.63;5004418;28;20578;-66
2022/06/03 04:22:10;;;;;;;9.15;7.82;;;;;;;19.58;83.91;97189.09;5002749;28;20153;-65
2022/06/03 04:25:19;;;;;;;9.52;7.72;;;;;;;19.85;83.23;97174.22;4983556;28;20139;-66
2022/06/03 04:28:03;;;;;;;11.52;8.55;;;;;;;20.10;81.28;97186.63;4949849;28;20065;-67
2022/06/03 04:30:49;;;;;;;11.77;8.15;;;;;;;20.25;81.46;97182.34;4997896;28;20062;-66
2022/06/03 04:33:38;;;;;;;10.93;8.00;;;;;;;20.62;80.24;97184.06;4987034;28;20471;-66
2022/06/03 04:36:32;;;;;;;14.38;8.20;;;;;;;20.81;79.65;97174.81;5003465;28;20062;-66
2022/06/03 04:39:21;;;;;;;14.93;9.30;;;;;;;20.87;80.61;97184.34;5002593;28;20064;-66
2022/06/03 04:42:09;;;;;;;11.57;9.02;;;;;;;21.18;80.39;97165.19;5003145;28;20058;-67
2022/06/03 04:45:00;;;;;;;11.82;8.57;;;;;;;21.51;79.77;97173.25;4989479;28;20132;-66
2022/06/03 04:47:27;;;;;;;10.90;9.00;;;;;;;21.80;78.15;97179.81;5003926;28;20061;-66
2022/06/03 04:50:03;;;;;;;10.20;9.15;;;;;;;22.15;76.88;97184.56;5004141;28;20065;-66
2022/06/03 04:53:08;;;;;;;18.50;8.82;;;;;;;22.38;76.44;97175.84;5004171;28;20054;-66
2022/06/03 04:55:53;;;;;;;16.15;10.18;;;;;;;22.70;76.12;97182.69;5003809;28;20506;-66
2022/06/03 04:58:57;;;;;;;14.45;8.95;;;;;;;22.73;77.66;97167.69;5004304;28;20057;-66
2022/06/03 05:01:56;;;;;;;19.88;9.15;;;;;;;22.88;76.32;97166.00;4992880;28;20149;-67
2022/06/03 05:04:42;;;;;;;11.38;8.27;;;;;;;22.83;75.69;97172.19;4966697;28;20058;-67
2022/06/03 05:07:24;;;;;;;13.43;8.75;;;;;;;22.89;75.40;97176.09;4984388;28;20066;-66
2022/06/03 05:10:23;;;;;;;11.13;8.57;;;;;;;23.00;74.81;97188.63;4967048;28;20058;-67
2022/06/03 05:12:52;;;;;;;9.45;8.15;;;;;;;23.11;75.83;97194.00;4984605;28;20085;-66
2022/06/03 05:15:58;;;;;;;9.90;8.45;;;;;;;22.90;76.65;97183.31;4984378;28;20072;-67
2022/06/03 05:18:41;;;;;;;12.40;8.65;;;;;;;23.35;74.19;97186.81;4973957;28;20066;-67
2022/06/03 05:21:38;;;;;;;13.80;9.73;;;;;;;23.62;72.61;97184.34;4982606;28;20061;-66
2022/06/03 05:24:34;;;;;;;14.40;10.35;;;;;;;23.87;71.30;97187.13;4984395;28;20145;-67
2022/06/03 05:27:55;;;;;;;18.95;9.23;;;;;;;24.18;69.35;97191.00;4983742;28;20402;-66
2022/06/03 05:47:48;;;;;;;;;;;;;;;;;;;;;
2022/06/03 06:09:26;;;;;;;15.98;8.18;;;;;;;26.54;55.04;97185.44;4981717;28;20976;-69
2022/06/03 06:12:38;;;;;;;10.15;7.95;;;;;;;26.50;56.63;97190.47;4984095;28;20051;-66
2022/06/03 06:22:19;;;;;;;12.88;8.13;;;;;;;27.21;53.47;97176.72;4978602;28;20700;-66
2022/06/03 06:25:12;;;;;;;10.68;9.38;;;;;;;27.14;52.10;97160.78;4977802;28;20559;-66
2022/06/03 06:27:57;;;;;;;8.68;8.00;;;;;;;27.25;51.25;97183.06;4986306;28;20089;-64
2022/06/03 06:34:46;;;;;;;8.43;7.32;;;;;;;27.44;50.46;97165.47;4983023;28;20053;-65
2022/06/03 06:37:45;;;;;;;10.90;7.85;;;;;;;27.33;50.10;97176.56;4965474;28;20062;-65
2022/06/03 06:40:51;;;;;;;9.52;8.48;;;;;;;27.55;49.57;97174.28;4950356;28;20126;-66
2022/06/03 06:43:38;;;;;;;8.38;7.57;;;;;;;27.39;49.60;97176.72;4969253;28;20062;-66
2022/06/03 06:46:17;;;;;;;11.60;8.07;;;;;;;27.39;49.90;97182.41;4986700;28;20509;-67
2022/06/03 06:49:18;;;;;;;9.85;7.93;;;;;;;27.14;49.52;97183.53;4986809;28;20540;-67
2022/06/03 06:52:33;;;;;;;8.68;7.80;;;;;;;26.97;49.06;97182.28;4981212;28;20058;-66
2022/06/03 06:55:47;;;;;;;7.72;6.97;;;;;;;27.19;49.49;97191.41;4963337;28;20144;-66
2022/06/03 07:02:41;;;;;;;;;;;;;;;;;;;;;
2022/06/03 07:05:20;;;;;;;10.82;7.90;;;;;;;27.80;47.14;97185.28;4954639;28;20054;-63
2022/06/03 07:08:25;;;;;;;9.27;8.40;;;;;;;27.91;47.70;97179.88;4983248;28;20437;-65
2022/06/03 07:11:23;;;;;;;9.50;8.15;;;;;;;27.74;47.97;97172.94;4957054;28;20062;-67
2022/06/03 07:13:59;;;;;;;8.00;7.20;;;;;;;28.05;46.85;97176.31;4986006;28;20050;-66
2022/06/03 07:20:16;;;;;;;10.30;7.32;;;;;;;28.25;46.08;97175.72;4906267;29;20052;-68
2022/06/03 07:22:58;;;;;;;8.98;8.07;;;;;;;27.98;46.35;97099.75;4894865;29;20060;-68
2022/06/03 07:27:56;;;;;;;11.63;8.32;;;;;;;28.60;45.82;97184.53;5081496;27;20134;-66
2022/06/03 07:30:48;;;;;;;10.52;8.32;;;;;;;28.43;44.97;97186.22;5051501;28;20079;-66
2022/06/03 07:33:35;;;;;;;11.27;8.25;;;;;;;28.68;45.25;97197.13;5065267;28;20151;-72
2022/06/03 07:36:33;;;;;;;9.93;8.48;;;;;;;28.65;46.51;97198.13;5064685;28;20056;-70
2022/06/03 07:39:23;;;;;;;10.70;7.95;;;;;;;28.17;46.13;97158.19;5054154;28;20062;-70
2022/06/03 07:42:04;;;;;;;9.48;8.45;;;;;;;28.38;46.00;97190.53;5078118;28;20122;-67
2022/06/03 07:44:49;;;;;;;14.55;9.82;;;;;;;28.17;46.23;97195.22;5070213;28;20089;-67
2022/06/03 07:47:18;;;;;;;9.25;8.32;;;;;;;28.06;45.99;97197.03;5053498;28;20149;-68
2022/06/03 07:50:00;;;;;;;15.88;10.18;;;;;;;28.46;45.90;97190.94;5063555;28;20106;-69
2022/06/03 07:52:37;;;;;;;9.82;8.45;;;;;;;28.64;43.96;97185.16;5059627;28;20061;-68
2022/06/03 07:55:11;;;;;;;14.43;10.13;;;;;;;28.82;43.91;97190.69;5043615;28;20055;-68
2022/06/03 07:57:38;;;;;;;10.27;8.38;;;;;;;29.11;43.39;97185.09;5056404;28;20049;-67
2022/06/03 08:00:15;;;;;;;17.40;9.50;;;;;;;29.14;43.09;97184.09;5061214;28;20130;-67
2022/06/03 08:02:42;;;;;;;10.07;8.05;;;;;;;28.82;41.28;97130.78;5078349;28;20064;-68
2022/06/03 08:05:17;;;;;;;9.25;8.32;;;;;;;29.00;41.82;97179.94;5044589;28;20041;-70
2022/06/03 08:11:04;;;;;;;8.93;8.02;;;;;;;28.60;43.21;97190.22;5062800;28;20052;-68
2022/06/03 08:13:34;;;;;;;13.40;11.38;;;;;;;28.49;43.70;97192.84;5060986;28;20048;-66
2022/06/03 08:16:05;;;;;;;14.38;12.02;;;;;;;28.94;43.51;97189.66;5067186;28;20134;-67
2022/06/03 08:18:45;;;;;;;14.20;10.75;;;;;;;29.06;41.71;97189.41;5063841;28;20056;-69
2022/06/03 08:21:57;;;;;;;8.52;7.82;;;;;;;29.01;39.88;97146.47;5066876;28;20095;-66
2022/06/03 08:24:33;;;;;;;10.30;8.70;;;;;;;29.63;40.64;97186.25;5008633;28;20064;-70
2022/06/03 08:27:07;;;;;;;9.05;8.18;;;;;;;29.80;39.40;97173.88;5005444;28;20062;-66
2022/06/03 08:29:36;;;;;;;8.70;7.60;;;;;;;29.12;40.38;97132.44;5006797;28;20049;-68
2022/06/03 08:32:12;;;;;;;8.70;7.97;;;;;;;28.99;39.44;97200.38;4983714;28;20076;-67
2022/06/03 08:34:46;;;;;;;8.02;7.25;;;;;;;29.23;39.92;97198.25;4998700;28;20062;-69
2022/06/03 08:37:26;;;;;;;8.65;7.95;;;;;;;29.48;40.43;97192.00;4979426;28;20449;-68
2022/06/03 08:39:58;;;;;;;9.00;8.20;;;;;;;29.67;40.08;97192.59;4986876;28;20136;-67
2022/06/03 08:42:48;;;;;;;8.75;7.97;;;;;;;29.55;39.99;97191.59;4986142;28;20120;-67
2022/06/03 08:45:28;;;;;;;9.40;8.68;;;;;;;29.62;41.00;97162.66;4986897;28;20130;-68
2022/06/03 08:47:56;;;;;;;12.60;8.02;;;;;;;30.07;40.04;97193.53;4969362;28;20052;-69
2022/06/03 08:50:54;;;;;;;9.63;8.77;;;;;;;29.44;40.67;97182.84;4986670;28;20593;-67
2022/06/03 08:53:27;;;;;;;8.68;7.93;;;;;;;29.85;40.98;97187.47;4966338;28;20056;-68
2022/06/03 08:56:08;;;;;;;8.75;7.97;;;;;;;29.81;40.32;97181.16;4986813;28;20058;-69
2022/06/03 08:58:58;;;;;;;8.23;7.63;;;;;;;29.71;41.23;97179.69;4969266;28;20439;-68
2022/06/03 09:01:38;;;;;;;8.00;7.30;;;;;;;29.68;40.92;97174.97;4969756;28;20058;-69
2022/06/03 09:04:05;;;;;;;8.95;8.05;;;;;;;30.05;40.65;97184.66;4969804;28;20058;-67
2022/06/03 09:07:10;;;;;;;12.93;8.73;;;;;;;30.00;39.89;97176.00;4986346;28;20137;-66
2022/06/03 09:09:51;;;;;;;8.32;7.72;;;;;;;29.89;39.08;97130.91;4986535;28;20093;-66
2022/06/03 09:12:59;;;;;;;8.43;7.63;;;;;;;30.30;40.03;97178.31;4986634;28;20100;-67
2022/06/03 09:15:33;;;;;;;9.45;8.13;;;;;;;30.31;40.20;97177.03;4981584;28;20138;-69
2022/06/03 09:18:26;;;;;;;8.98;8.13;;;;;;;30.38;39.92;97170.88;4986502;28;20379;-70
2022/06/03 09:21:03;;;;;;;10.77;8.57;;;;;;;30.15;41.30;97166.09;4968586;28;20068;-66
2022/06/03 09:23:37;;;;;;;9.00;8.30;;;;;;;30.16;40.81;97147.66;4986209;28;20437;-69
2022/06/03 09:26:04;;;;;;;10.68;8.93;;;;;;;30.35;40.66;97180.44;4968176;28;20054;-69
2022/06/03 09:28:35;;;;;;;9.43;8.63;;;;;;;30.30;39.49;97155.44;4986064;28;20109;-69
2022/06/03 09:31:07;;;;;;;9.77;8.85;;;;;;;30.56;39.09;97190.63;4984206;28;20109;-68
2022/06/03 09:33:37;;;;;;;9.70;8.70;;;;;;;30.20;40.52;97196.84;4968483;28;20137;-67
2022/06/03 09:36:13;;;;;;;11.98;8.30;;;;;;;30.32;39.82;97170.00;4984363;28;20062;-68
2022/06/03 09:38:51;;;;;;;10.05;9.18;;;;;;;30.46;40.51;97179.84;4986113;28;20085;-69
2022/06/03 09:41:24;;;;;;;9.30;8.57;;;;;;;30.04;40.22;97156.56;4986208;28;20054;-66
2022/06/03 09:43:55;;;;;;;;;;;;;;;30.38;39.86;97185.16;4968577;28;20050;-69
2022/06/03 09:46:31;;;;;;;10.75;9.32;;;;;;;30.51;40.21;97188.47;4968053;28;20020;-69
2022/06/03 09:49:10;;;;;;;9.23;8.50;;;;;;;30.26;39.69;97149.13;4967540;28;20054;-68
2022/06/03 09:51:57;;;;;;;9.98;9.07;;;;;;;30.04;40.31;97194.50;4984195;28;20102;-70
2022/06/03 09:54:42;;;;;;;9.10;7.93;;;;;;;29.86;40.64;97189.03;4985440;28;20081;-69
2022/06/03 09:57:09;;;;;;;9.35;8.40;;;;;;;30.21;39.97;97189.88;4983648;28;20062;-70
2022/06/03 09:59:40;;;;;;;8.85;8.15;;;;;;;30.15;40.27;97153.88;4985942;28;20057;-67
2022/06/03 10:02:08;;;;;;;8.30;7.70;;;;;;;29.77;40.13;97143.44;4985983;28;20129;-69
2022/06/03 10:04:35;;;;;;;9.88;8.90;;;;;;;30.60;40.40;97185.47;4984921;28;20078;-67
2022/06/03 10:07:02;;;;;;;8.38;7.70;;;;;;;30.13;41.21;97174.38;4983780;28;20481;-68
2022/06/03 10:12:49;;;;;;;8.98;8.23;;;;;;;30.62;38.95;97188.63;4984936;28;20516;-66
2022/06/03 10:18:24;;;;;;;9.60;8.88;;;;;;;30.81;38.67;97206.31;4985592;28;19926;-66
2022/06/03 10:21:07;;;;;;;9.05;8.45;;;;;;;30.37;39.16;97205.69;4985421;28;20054;-69
2022/06/03 10:23:56;;;;;;;8.98;8.20;;;;;;;30.98;38.35;97205.22;4983746;28;20124;-68
2022/06/03 10:26:51;;;;;;;8.30;7.68;;;;;;;31.16;38.45;97197.63;4984623;28;20090;-68
2022/06/03 10:29:21;;;;;;;10.07;9.38;;;;;;;31.19;37.63;97190.91;4966765;28;20065;-67
2022/06/03 10:31:51;;;;;;;8.93;8.25;;;;;;;31.13;38.83;97210.06;4982909;28;20543;-68
2022/06/03 10:34:31;;;;;;;9.13;8.27;;;;;;;30.74;38.60;97213.25;4983601;28;20078;-68
2022/06/03 10:36:58;;;;;;;9.23;7.97;;;;;;;31.07;38.81;97206.34;4967175;28;20145;-68
2022/06/03 10:39:27;;;;;;;8.85;8.25;;;;;;;31.14;38.15;97149.47;4984535;28;20061;-69
2022/06/03 10:42:00;;;;;;;8.95;8.23;;;;;;;30.72;38.83;97186.41;4984305;28;20068;-69
2022/06/03 10:44:36;;;;;;;9.82;8.80;;;;;;;30.73;38.46;97145.84;4983452;28;20441;-67
2022/06/03 10:47:05;;;;;;;8.88;8.02;;;;;;;30.78;39.88;97190.94;4984605;28;20062;-69
2022/06/03 10:49:37;;;;;;;9.90;8.55;;;;;;;29.68;40.00;97086.44;4983550;28;20199;-68
2022/06/03 11:03:28;;;;;;;9.88;8.48;;;;;;;31.53;38.51;97192.81;4984421;28;20046;-67
2022/06/03 11:05:55;;;;;;;11.13;8.85;;;;;;;31.90;38.13;97193.72;4984377;28;20054;-66
2022/06/03 11:08:22;;;;;;;10.98;8.85;;;;;;;31.57;38.70;97164.75;4984753;28;20065;-70
2022/06/03 11:10:55;;;;;;;9.60;8.65;;;;;;;31.19;39.37;97142.22;4967181;28;20057;-67
2022/06/03 11:13:29;;;;;;;10.10;9.20;;;;;;;29.97;41.52;97114.13;4984327;28;20428;-69
2022/06/03 11:16:11;;;;;;;9.13;8.48;;;;;;;31.00;40.57;97189.63;4984012;28;20489;-66
2022/06/03 11:18:37;;;;;;;9.70;9.00;;;;;;;31.29;40.03;97195.16;4984154;28;20054;-67
2022/06/03 11:21:25;;;;;;;9.68;8.85;;;;;;;31.49;39.72;97186.56;4984188;28;20050;-69
2022/06/03 11:23:53;;;;;;;10.20;9.20;;;;;;;31.28;40.13;97147.78;4966600;28;20677;-68
2022/06/03 11:26:20;;;;;;;8.90;8.25;;;;;;;31.14;40.48;97180.16;4966028;28;20054;-66
2022/06/03 11:28:52;;;;;;;10.85;8.70;;;;;;;31.22;39.95;97146.94;4967075;28;20050;-69
2022/06/03 11:31:23;;;;;;;9.90;9.07;;;;;;;31.13;41.48;97184.31;4984263;28;20073;-66
2022/06/03 11:34:04;;;;;;;11.90;9.43;;;;;;;31.05;41.72;97180.34;4984645;28;20058;-69
2022/06/03 11:36:57;;;;;;;12.82;9.02;;;;;;;30.94;41.98;97181.78;4984421;28;20069;-66
2022/06/03 11:39:23;;;;;;;10.85;8.68;;;;;;;31.28;41.54;97193.59;4982559;28;20088;-69
2022/06/03 11:41:56;;;;;;;10.00;8.40;;;;;;;30.63;43.04;97190.22;4983781;28;20433;-68
2022/06/03 11:44:35;;;;;;;8.70;8.10;;;;;;;29.94;43.77;97198.75;4984133;28;20069;-67
2022/06/03 11:47:23;;;;;;;9.48;7.88;;;;;;;29.67;44.21;97207.66;4984051;28;20579;-67
2022/06/03 11:49:51;;;;;;;9.98;8.55;;;;;;;28.96;43.48;97192.81;4984184;28;20120;-67
2022/06/03 11:52:17;;;;;;;10.70;7.15;;;;;;;28.97;40.92;97180.13;4982686;28;20426;-68
2022/06/03 11:54:44;;;;;;;13.77;7.28;;;;;;;29.10;39.34;97207.09;4984128;28;20055;-67
2022/06/03 11:57:11;;;;;;;10.77;7.18;;;;;;;29.47;39.22;97207.53;4982463;28;20065;-66
2022/06/03 11:59:50;;;;;;;8.10;7.50;;;;;;;29.68;38.87;97149.28;4983684;28;20057;-67
2022/06/03 12:02:32;;;;;;;8.63;7.80;;;;;;;28.99;41.49;97197.53;4983913;28;20054;-69
2022/06/03 12:05:06;;;;;;;11.02;7.63;;;;;;;29.06;43.14;97197.13;4938119;28;20073;-66
2022/06/03 12:07:38;;;;;;;8.93;8.10;;;;;;;29.39;43.76;97194.94;4983080;28;20057;-67
2022/06/03 12:10:13;;;;;;;9.48;8.57;;;;;;;29.44;45.22;97192.19;4987473;28;20048;-66
2022/06/03 12:15:35;;;;;;;13.50;9.57;;;;;;;30.12;45.86;97187.09;5002177;28;20564;-67
2022/06/03 12:18:09;;;;;;;9.50;8.50;;;;;;;30.19;45.67;97189.53;4992408;28;20130;-68
2022/06/03 12:20:43;;;;;;;9.68;8.48;;;;;;;29.66;46.71;97174.69;4984221;28;20054;-69
2022/06/03 12:23:13;;;;;;;8.50;7.88;;;;;;;29.85;46.94;97193.16;4982496;28;20122;-69
2022/06/03 12:25:45;;;;;;;10.95;9.60;;;;;;;30.21;46.93;97181.28;4984018;28;20065;-68
2022/06/03 12:28:41;;;;;;;9.13;8.38;;;;;;;31.10;44.83;97166.06;4985628;28;20552;-69
2022/06/03 12:31:20;;;;;;;9.68;8.95;;;;;;;30.52;45.69;97190.06;4980956;28;20538;-67
2022/06/03 12:34:05;;;;;;;10.52;9.50;;;;;;;30.49;46.13;97185.31;4992576;28;20057;-68
2022/06/03 12:36:53;;;;;;;9.95;9.15;;;;;;;32.68;41.63;97178.59;4985429;28;20073;-71
2022/06/03 12:40:58;;;;;;;10.00;9.10;;;;;;;31.78;43.57;97177.69;5057584;28;20963;-70
2022/06/03 12:43:46;;;;;;;10.70;9.60;;;;;;;32.82;41.36;97174.72;5047602;28;20059;-66
2022/06/03 12:51:19;;;;;;;10.25;9.45;;;;;;;31.97;41.78;97130.19;5049348;28;20403;-65
2022/06/03 12:53:48;;;;;;;11.65;9.60;;;;;;;31.10;44.55;97176.72;5056772;28;20045;-66
2022/06/03 12:56:27;;;;;;;10.45;9.35;;;;;;;31.08;42.67;97174.38;5051727;28;20045;-67
2022/06/03 12:59:11;;;;;;;9.60;8.45;;;;;;;31.00;42.61;97166.75;5050841;28;20437;-63
2022/06/03 13:01:47;;;;;;;10.30;9.40;;;;;;;30.80;43.25;97188.38;5041825;28;20049;-64
2022/06/03 13:04:32;;;;;;;9.60;8.70;;;;;;;30.69;44.10;97193.91;5053943;28;20044;-61
2022/06/03 13:07:15;;;;;;;10.30;9.20;;;;;;;29.90;44.99;97121.06;5045895;28;20052;-61
2022/06/03 13:10:04;;;;;;;10.05;9.18;;;;;;;30.26;45.17;97194.88;5055126;28;20089;-62
2022/06/03 13:12:45;;;;;;;10.25;8.85;;;;;;;30.16;45.96;97201.97;5066764;28;20144;-70
2022/06/03 13:15:20;;;;;;;10.73;8.95;;;;;;;29.87;46.30;97201.25;5053109;28;20052;-61
2022/06/03 13:20:37;;;;;;;11.63;8.82;;;;;;;29.38;48.24;97208.44;5045119;28;20041;-61
2022/06/03 13:23:53;;;;;;;9.80;8.80;;;;;;;29.61;47.93;97212.47;5029818;28;20061;-66
2022/06/03 13:26:22;;;;;;;9.13;8.32;;;;;;;29.38;47.54;97204.78;5039098;28;20422;-64
2022/06/03 13:28:50;;;;;;;9.57;8.80;;;;;;;28.95;48.04;97137.00;5045270;28;20048;-61
2022/06/03 13:31:25;;;;;;;8.57;7.80;;;;;;;28.71;46.92;97070.69;5052658;28;20053;-67
2022/06/03 13:34:12;;;;;;;9.27;8.50;;;;;;;29.36;47.45;97190.22;5051111;28;20049;-64
2022/06/03 13:36:51;;;;;;;10.80;9.90;;;;;;;29.48;46.72;97192.00;5048344;28;20052;-63
2022/06/03 13:39:24;;;;;;;9.02;8.15;;;;;;;29.65;46.20;97178.81;5048323;28;20041;-62
2022/06/03 13:44:47;;;;;;;8.65;7.85;;;;;;;29.43;46.26;97178.41;5030122;28;20056;-63
2022/06/03 13:47:20;;;;;;;9.07;8.18;;;;;;;29.67;45.00;97181.94;5036184;28;20130;-60
2022/06/03 13:49:51;;;;;;;8.52;7.75;;;;;;;29.69;45.46;97185.13;5044242;28;20087;-61
2022/06/03 13:52:28;;;;;;;12.30;8.50;;;;;;;30.05;45.54;97166.75;5050422;28;20049;-62
2022/06/03 13:55:13;;;;;;;10.48;8.60;;;;;;;30.48;45.03;97166.59;5054085;28;20076;-63
2022/06/03 13:57:48;;;;;;;9.27;8.55;;;;;;;31.17;44.07;97170.56;5044348;28;20056;-60
2022/06/03 14:00:18;;;;;;;8.80;8.05;;;;;;;31.65;42.93;97166.63;5038751;28;20484;-64
2022/06/03 14:02:47;;;;;;;9.88;8.50;;;;;;;31.73;43.10;97126.84;5035022;28;20044;-64
2022/06/03 14:05:27;;;;;;;11.18;10.25;;;;;;;30.62;42.18;96908.31;5038709;28;20068;-64
2022/06/03 14:08:03;;;;;;;10.40;9.32;;;;;;;31.39;41.93;97059.13;5039855;28;20059;-61
2022/06/03 14:10:55;;;;;;;10.00;9.07;;;;;;;33.23;38.98;97155.03;5046200;28;20167;-58
2022/06/03 14:13:41;;;;;;;9.43;8.73;;;;;;;34.05;38.04;97153.59;5041722;28;20738;-60
2022/06/03 14:16:19;;;;;;;9.00;8.30;;;;;;;34.74;36.71;97158.13;5035064;28;20041;-60
2022/06/03 14:19:01;;;;;;;14.73;10.93;;;;;;;34.41;37.13;97149.63;5045897;28;20084;-63